logo
Search for airport 
image banner adimage banner adimage banner ad
image banner ad

SIUH - Fazenda Flores

Located in Tamboril, Brazil

ICAO - SIUH, IATA -

Data provided by Airmate  

General information

Coordinates: S5°2'57" W40°14'3"
Elevation is 1312 feet MSL.
Magnetic variation is -21° East
View others Airports in Ceará

Operational data

Special qualification required
Current time UTC:
Current local time:
Weather at : - ( 0 km )
METAR: PADM 131635Z AUTO 00000KT 10SM BKN006 OVC011 M12/M13 A3016 RMK AO2 FZRANO
View NOTAMs / SUP AIP / TFR affecting this airport [VIEW]
Communications frequencies: [VIEW]

Runways:

RWY identifierQFULength (ft)Width (ft)SurfaceLDA (ft)
10311775GRAVEL
28311775GRAVEL

Airport contact information

Address: Tamboril Brazil

Satellite view of SIUH